Time;durP1;ratioP1;P1;durP2;ratioP2;P2;SDS_P1;SDS_P2;PMS_P1;PMS_P2;Temp;Humidity;BMP_temperature;BMP_pressure;BME280_temperature;BME280_humidity;BME280_pressure;Samples;Min_cycle;Max_cycle;Signal;HPM_P1;HPM_P2
2021/09/15 00:01:15;;;;;;;;;;;;;;;;;;;;;
2021/09/15 00:04:17;;;;;;;;;;;;;;;;;;;;;
2021/09/15 00:07:14;;;;;;;5.80;4.50;;;;;;;24.79;45.25;101045.69;110725;1232;73179;-85
2021/09/15 00:10:23;;;;;;;6.60;5.00;;;;;;;24.79;45.36;101043.70;111003;1236;75380;-85
2021/09/15 00:13:50;;;;;;;9.70;4.90;;;;;;;24.78;45.52;101045.14;110972;1232;60299;-91
2021/09/15 00:17:06;;;;;;;;;;;;;;;;;;;;;
2021/09/15 00:20:09;;;;;;;6.30;4.70;;;;;;;24.78;45.39;101043.77;110429;1237;72914;-91
2021/09/15 00:23:13;;;;;;;6.80;4.50;;;;;;;24.78;45.46;101045.73;110402;1241;73477;-87
2021/09/15 00:25:59;;;;;;;5.70;4.50;;;;;;;24.78;45.44;101043.21;110569;1234;60694;-89
2021/09/15 00:29:15;;;;;;;;;;;;;;;;;;;;;
2021/09/15 00:32:20;;;;;;;;;;;;;;;;;;;;;
2021/09/15 00:35:30;;;;;;;;;;;;;;;;;;;;;
2021/09/15 00:39:00;;;;;;;5.80;4.20;;;;;;;24.76;45.77;101038.27;110302;1236;60196;-86
2021/09/15 00:41:44;;;;;;;5.50;4.00;;;;;;;24.77;45.47;101041.86;110500;1235;60189;-84
2021/09/15 00:44:50;;;;;;;;;;;;;;;24.77;45.72;101036.98;110481;1240;74447;-86
2021/09/15 00:47:50;;;;;;;;;;;;;;;;;;;;;
2021/09/15 00:51:07;;;;;;;5.00;3.60;;;;;;;24.75;45.59;101034.61;110631;1229;60161;-84
2021/09/15 00:54:04;;;;;;;;;;;;;;;;;;;;;
2021/09/15 00:57:01;;;;;;;;;;;;;;;;;;;;;
2021/09/15 01:00:16;;;;;;;6.70;4.60;;;;;;;24.75;45.81;101041.82;110852;1233;72631;-84
2021/09/15 01:03:05;;;;;;;6.80;4.40;;;;;;;24.75;45.66;101042.52;110945;1235;61019;-89
2021/09/15 01:09:10;;;;;;;;;;;;;;;;;;;;;
2021/09/15 01:12:16;;;;;;;6.20;4.20;;;;;;;24.75;45.63;101047.39;110974;1234;73805;-86
2021/09/15 01:15:12;;;;;;;5.60;4.30;;;;;;;24.75;45.88;101045.38;110799;1235;61438;-89
2021/09/15 01:18:38;;;;;;;6.10;4.10;;;;;;;24.75;45.60;101044.52;111008;1233;60419;-86
2021/09/15 01:21:44;;;;;;;;;;;;;;;;;;;;;
2021/09/15 01:24:30;;;;;;;5.80;4.20;;;;;;;24.75;45.74;101040.90;110785;1236;73478;-90
2021/09/15 01:27:37;;;;;;;5.90;4.10;;;;;;;24.75;45.56;101046.66;110621;1232;60230;-86
2021/09/15 01:31:02;;;;;;;;;;;;;;;;;;;;;
2021/09/15 01:34:17;;;;;;;4.90;3.60;;;;;;;24.75;45.58;101051.55;110242;1241;73104;-89
2021/09/15 01:36:59;;;;;;;;;;;;;;;24.74;45.83;101049.98;110209;1241;72469;-82
2021/09/15 01:39:42;;;;;;;;;;;;;;;;;;;;;
2021/09/15 01:42:37;;;;;;;6.40;4.20;;;;;;;24.74;45.82;101049.11;110529;1239;60378;-79
2021/09/15 01:45:40;;;;;;;;;;;;;;;;;;;;;
2021/09/15 01:48:57;;;;;;;;;;;;;;;;;;;;;
2021/09/15 01:52:04;;;;;;;5.10;3.70;;;;;;;24.73;45.93;101052.42;110536;1238;60212;-85
2021/09/15 01:54:58;;;;;;;5.20;4.10;;;;;;;24.73;45.85;101053.30;110466;1238;60551;-79
2021/09/15 01:57:55;;;;;;;5.70;3.80;;;;;;;24.73;45.80;101056.55;110455;1238;72349;-86
2021/09/15 02:00:40;;;;;;;5.50;4.20;;;;;;;24.73;45.75;101055.45;110537;1239;73969;-84
2021/09/15 02:04:14;;;;;;;5.40;3.70;;;;;;;24.73;46.01;101056.71;110803;1234;61442;-83
2021/09/15 02:07:15;;;;;;;5.80;3.90;;;;;;;24.73;45.73;101052.26;111090;1233;60144;-89
2021/09/15 02:10:29;;;;;;;5.70;3.70;;;;;;;24.73;45.74;101049.73;111099;1233;72665;-89
2021/09/15 02:13:15;;;;;;;5.60;3.70;;;;;;;24.73;45.76;101045.61;111082;1234;74670;-79
2021/09/15 02:16:39;;;;;;;;;;;;;;;;;;;;;
2021/09/15 02:19:35;;;;;;;5.10;3.70;;;;;;;24.73;45.82;101045.21;111626;1228;60683;-80
2021/09/15 02:22:31;;;;;;;;;;;;;;;;;;;;;
2021/09/15 02:25:38;;;;;;;;;;;;;;;;;;;;;
2021/09/15 02:28:40;;;;;;;;;;;;;;;;;;;;;
2021/09/15 02:31:42;;;;;;;4.80;3.50;;;;;;;24.73;45.70;101048.95;112145;1222;60124;-90
2021/09/15 02:34:47;;;;;;;5.00;3.40;;;;;;;24.73;45.83;101052.74;111833;1222;73751;-87
2021/09/15 02:37:34;;;;;;;4.30;3.50;;;;;;;24.74;45.74;101048.42;111809;1229;74415;-87
2021/09/15 02:40:30;;;;;;;5.90;3.70;;;;;;;24.73;45.79;101048.60;111760;1221;61050;-83
2021/09/15 02:46:56;;;;;;;6.60;3.50;;;;;;;24.73;45.80;101054.96;111279;1232;73285;-84
2021/09/15 02:50:03;;;;;;;4.60;3.50;;;;;;;24.73;45.93;101057.14;111057;1232;74060;-84
2021/09/15 02:53:09;;;;;;;4.70;3.50;;;;;;;24.73;45.83;101064.50;111166;1233;60354;-88
2021/09/15 02:56:44;;;;;;;4.70;3.10;;;;;;;24.72;45.80;101069.76;110628;1238;60217;-82
2021/09/15 02:59:39;;;;;;;4.60;3.50;;;;;;;24.72;45.88;101068.30;110640;1238;73095;-90
2021/09/15 03:02:49;;;;;;;4.50;3.40;;;;;;;24.73;45.82;101071.14;110600;1238;73851;-80
2021/09/15 03:05:56;;;;;;;4.90;3.50;;;;;;;24.73;45.82;101066.70;110605;1238;61259;-91
2021/09/15 03:08:55;;;;;;;5.70;3.30;;;;;;;24.72;45.74;101063.81;110256;1243;61239;-86
2021/09/15 03:11:50;;;;;;;;;;;;;;;24.72;45.74;101069.77;110469;1238;73483;-86
2021/09/15 03:14:57;;;;;;;4.40;3.40;;;;;;;24.71;45.69;101072.77;110712;1238;74657;-84
2021/09/15 03:18:03;;;;;;;5.00;3.50;;;;;;;24.71;45.72;101069.87;110627;1239;60278;-86
2021/09/15 03:21:09;;;;;;;5.50;3.80;;;;;;;24.70;45.68;101069.55;110428;1240;60967;-84
2021/09/15 03:24:15;;;;;;;4.80;3.40;;;;;;;24.71;45.60;101074.56;110188;1243;74024;-91
2021/09/15 03:27:21;;;;;;;5.40;3.50;;;;;;;24.71;45.89;101079.63;110142;1243;73141;-87
2021/09/15 03:30:35;;;;;;;7.00;3.70;;;;;;;24.71;45.85;101081.93;110246;1241;61142;-84
2021/09/15 03:33:39;;;;;;;;;;;;;;;;;;;;;
2021/09/15 03:36:51;;;;;;;5.00;3.40;;;;;;;24.71;45.79;101086.25;110571;1237;72456;-89
2021/09/15 03:39:58;;;;;;;5.00;3.40;;;;;;;24.70;45.62;101089.20;110286;1241;76010;-90
2021/09/15 03:42:52;;;;;;;5.90;3.60;;;;;;;24.70;45.69;101093.84;110327;1241;61076;-87
2021/09/15 03:46:20;;;;;;;5.60;3.80;;;;;;;24.70;45.65;101099.30;110233;1241;61093;-83
2021/09/15 03:49:24;;;;;;;6.30;3.90;;;;;;;24.68;45.58;101098.95;110345;1241;72556;-85
2021/09/15 03:52:12;;;;;;;5.00;3.70;;;;;;;24.66;45.63;101098.39;110309;1241;75344;-80
2021/09/15 03:55:30;;;;;;;5.40;4.10;;;;;;;24.62;45.47;101099.20;110486;1238;60967;-87
2021/09/15 03:58:54;;;;;;;9.90;4.20;;;;;;;24.58;45.38;101105.95;110719;1237;61509;-91
2021/09/15 04:02:11;;;;;;;7.30;4.40;;;;;;;24.56;44.97;101105.98;110547;1238;72539;-90
2021/09/15 04:05:16;;;;;;;6.60;3.90;;;;;;;24.53;45.05;101110.30;110635;1231;75394;-89
2021/09/15 04:08:21;;;;;;;10.00;4.80;;;;;;;24.51;44.72;101107.48;110811;1235;62228;-83
2021/09/15 04:11:09;;;;;;;5.70;4.10;;;;;;;24.47;44.48;101106.69;110981;1235;60972;-85
2021/09/15 04:13:58;;;;;;;7.80;4.40;;;;;;;24.44;44.35;101112.30;111021;1234;73535;-90
2021/09/15 04:17:07;;;;;;;;;;;;;;;;;;;;;
2021/09/15 04:20:13;;;;;;;;;;;;;;;;;;;;;
2021/09/15 04:23:10;;;;;;;;;;;;;;;;;;;;;
2021/09/15 04:32:47;;;;;;;8.10;4.40;;;;;;;24.40;43.63;101118.61;111709;1222;61170;-87
2021/09/15 04:35:56;;;;;;;7.70;4.40;;;;;;;24.40;43.50;101122.73;111768;1219;61686;-81
2021/09/15 04:38:54;;;;;;;5.20;3.90;;;;;;;24.39;43.29;101122.61;111515;1221;71084;-84
2021/09/15 04:41:33;;;;;;;6.40;4.20;;;;;;;24.40;43.40;101129.38;111824;1218;75268;-82
2021/09/15 04:44:07;;;;;;;8.80;4.60;;;;;;;24.40;43.19;101130.14;112115;1215;59829;-82
2021/09/15 04:46:54;;;;;;;8.30;4.60;;;;;;;24.39;43.23;101131.59;111883;1215;61011;-82
2021/09/15 04:49:20;;;;;;;9.30;4.70;;;;;;;24.39;43.09;101129.67;112665;1214;72543;-79
2021/09/15 04:51:46;;;;;;;9.00;4.30;;;;;;;24.37;43.01;101131.42;112242;1214;61924;-80
2021/09/15 04:54:26;;;;;;;13.80;4.80;;;;;;;24.35;43.03;101133.06;112134;1215;61795;-88
2021/09/15 04:57:12;;;;;;;9.40;4.80;;;;;;;24.30;43.01;101135.05;112141;1214;60997;-80
2021/09/15 04:59:38;;;;;;;8.70;4.20;;;;;;;24.29;42.95;101134.61;111977;1215;72301;-80
2021/09/15 05:02:21;;;;;;;9.70;5.00;;;;;;;24.30;43.07;101133.82;112889;1214;75076;-81
2021/09/15 05:04:47;;;;;;;11.30;5.40;;;;;;;24.31;42.96;101138.60;112184;1216;61131;-82
2021/09/15 05:07:13;;;;;;;13.30;5.40;;;;;;;24.32;42.94;101139.75;112160;1218;61002;-81
2021/09/15 05:09:47;;;;;;;15.60;5.10;;;;;;;24.34;42.95;101145.35;112047;1216;60971;-81
2021/09/15 05:12:33;;;;;;;10.10;4.90;;;;;;;24.36;43.05;101150.43;112228;1214;74367;-82
2021/09/15 05:15:01;;;;;;;12.90;4.90;;;;;;;24.37;43.05;101153.59;112162;1214;60945;-80
2021/09/15 05:17:27;;;;;;;12.70;4.90;;;;;;;24.37;43.09;101153.73;112434;1211;61038;-81
2021/09/15 05:20:18;;;;;;;17.10;5.60;;;;;;;24.38;43.33;101157.64;112487;1217;71111;-81
2021/09/15 05:23:05;;;;;;;17.50;5.00;;;;;;;24.32;43.13;101160.04;112535;1214;74357;-81
2021/09/15 05:25:36;;;;;;;17.20;4.80;;;;;;;24.25;43.26;101160.98;112625;1218;60959;-81
2021/09/15 05:28:12;;;;;;;;;;;;;;;;;;;;;
2021/09/15 05:30:54;;;;;;;12.80;4.70;;;;;;;24.26;43.10;101156.95;112522;1214;72159;-83
2021/09/15 05:33:40;;;;;;;;;;;;;;;;;;;;;
2021/09/15 05:36:11;;;;;;;16.70;5.40;;;;;;;24.25;43.02;101162.93;112505;1212;61028;-80
2021/09/15 05:39:07;;;;;;;11.90;4.60;;;;;;;24.18;43.06;101167.46;112548;1211;60974;-81
2021/09/15 05:41:35;;;;;;;13.20;5.10;;;;;;;24.14;43.14;101168.66;113368;1212;72182;-81
2021/09/15 05:44:04;;;;;;;11.40;5.60;;;;;;;24.09;42.83;101168.51;112471;1211;61003;-80
2021/09/15 05:46:55;;;;;;;;;;;;;;;;;;;;;
2021/09/15 05:49:30;;;;;;;;;;;;;;;24.05;43.11;101170.41;112654;1218;61031;-80
2021/09/15 05:52:06;;;;;;;14.50;5.80;;;;;;;24.04;43.08;101168.31;112380;1218;74065;-80
2021/09/15 05:54:40;;;;;;;14.90;5.60;;;;;;;24.05;43.09;101170.23;112256;1220;74386;-81
2021/09/15 05:57:09;;;;;;;15.10;5.60;;;;;;;24.01;43.13;101170.06;112078;1212;61060;-80
2021/09/15 05:59:35;;;;;;;14.30;6.10;;;;;;;23.96;43.29;101170.42;112046;1211;61115;-80
2021/09/15 06:02:24;;;;;;;13.50;5.90;;;;;;;23.93;43.27;101173.69;112277;1211;59548;-82
2021/09/15 06:04:52;;;;;;;16.20;5.70;;;;;;;23.91;43.25;101176.91;112235;1211;75509;-80
2021/09/15 06:07:40;;;;;;;11.20;5.60;;;;;;;23.89;43.33;101176.18;112276;1214;61046;-80
2021/09/15 06:10:17;;;;;;;10.20;4.90;;;;;;;23.87;43.55;101178.10;112431;1218;61271;-84
2021/09/15 06:12:51;;;;;;;12.40;5.40;;;;;;;23.91;43.58;101180.11;112423;1211;72495;-79
2021/09/15 06:15:27;;;;;;;;;;;;;;;;;;;;;
2021/09/15 06:18:07;;;;;;;14.10;6.20;;;;;;;23.92;43.51;101178.44;111964;1221;61092;-80
2021/09/15 06:20:35;;;;;;;11.90;5.90;;;;;;;23.91;43.51;101176.77;111983;1216;61177;-81
2021/09/15 06:23:12;;;;;;;;;;;;;;;;;;;;;
2021/09/15 06:25:41;;;;;;;11.50;5.80;;;;;;;23.93;43.64;101179.24;112003;1215;74609;-81
2021/09/15 06:28:29;;;;;;;;;;;;;;;;;;;;;
2021/09/15 06:31:12;;;;;;;12.90;5.80;;;;;;;23.95;43.71;101185.09;111667;1221;60988;-83
2021/09/15 06:33:43;;;;;;;15.90;5.60;;;;;;;23.97;43.66;101187.24;112276;1214;72192;-81
2021/09/15 06:36:15;;;;;;;10.20;5.60;;;;;;;23.97;43.79;101186.93;112132;1214;75204;-82
2021/09/15 06:38:44;;;;;;;12.40;6.10;;;;;;;23.97;43.79;101187.06;111990;1215;61211;-79
2021/09/15 06:41:17;;;;;;;10.30;5.70;;;;;;;23.97;43.84;101186.39;111930;1215;61246;-79
2021/09/15 06:43:51;;;;;;;13.30;5.80;;;;;;;23.97;43.89;101185.98;112362;1223;74273;-81
2021/09/15 06:46:30;;;;;;;;;;;;;;;;;;;;;
2021/09/15 06:49:30;;;;;;;12.10;5.60;;;;;;;23.99;44.01;101193.88;111502;1221;60951;-81
2021/09/15 06:52:08;;;;;;;12.40;6.20;;;;;;;24.01;44.06;101191.30;111917;1216;61018;-81
2021/09/15 06:54:37;;;;;;;;;;;;;;;24.03;44.02;101193.83;111327;1217;72239;-82
2021/09/15 06:57:07;;;;;;;16.30;6.00;;;;;;;24.00;44.21;101193.65;111315;1224;74234;-80
2021/09/15 06:59:51;;;;;;;13.80;6.20;;;;;;;24.00;44.22;101191.52;111587;1218;61314;-80
2021/09/15 07:02:17;;;;;;;19.50;6.70;;;;;;;24.01;44.15;101187.84;111604;1222;61020;-80
2021/09/15 07:04:45;;;;;;;;;;;;;;;24.03;44.25;101191.27;111628;1218;74137;-81
2021/09/15 07:07:37;;;;;;;;;;;;;;;;;;;;;
2021/09/15 07:10:23;;;;;;;10.30;5.80;;;;;;;24.08;44.45;101193.95;111817;1216;61277;-80
2021/09/15 07:12:52;;;;;;;13.30;6.20;;;;;;;24.11;44.39;101197.29;111660;1217;61013;-80
2021/09/15 07:15:20;;;;;;;11.80;6.40;;;;;;;24.15;44.46;101194.53;111746;1220;72617;-81
2021/09/15 07:17:50;;;;;;;8.60;6.10;;;;;;;24.18;44.47;101195.17;112216;1216;74498;-81
2021/09/15 07:20:41;;;;;;;8.40;5.80;;;;;;;24.22;44.49;101195.38;111590;1225;62555;-80
2021/09/15 07:23:10;;;;;;;10.00;6.30;;;;;;;24.24;44.40;101197.39;111897;1223;60175;-80
2021/09/15 07:25:36;;;;;;;;;;;;;;;24.22;44.32;101196.44;111551;1219;72708;-80
2021/09/15 07:28:08;;;;;;;13.60;6.20;;;;;;;24.20;44.49;101195.37;112224;1216;74459;-80
2021/09/15 07:30:43;;;;;;;8.30;6.40;;;;;;;24.22;44.45;101196.12;112987;1211;60094;-80
2021/09/15 07:33:18;;;;;;;12.50;6.90;;;;;;;24.22;44.42;101200.04;112234;1212;60955;-80
2021/09/15 07:35:52;;;;;;;10.90;6.20;;;;;;;24.23;44.36;101199.08;112412;1219;72324;-81
2021/09/15 07:38:29;;;;;;;;;;;;;;;;;;;;;
2021/09/15 07:41:18;;;;;;;11.00;6.70;;;;;;;24.27;44.55;101200.41;112554;1210;60812;-81
2021/09/15 07:43:52;;;;;;;11.70;6.80;;;;;;;24.28;44.50;101201.54;112536;1213;59958;-80
2021/09/15 07:46:22;;;;;;;11.10;6.50;;;;;;;24.31;44.51;101203.52;112472;1212;72377;-81
2021/09/15 07:49:15;;;;;;;9.40;6.60;;;;;;;24.33;44.42;101204.77;112543;1213;74344;-82
2021/09/15 07:51:47;;;;;;;11.50;6.80;;;;;;;24.36;44.50;101203.09;112481;1211;60841;-81
2021/09/15 07:54:15;;;;;;;19.10;7.00;;;;;;;24.37;44.47;101205.52;112470;1212;60891;-81
2021/09/15 07:56:41;;;;;;;20.10;7.10;;;;;;;24.33;44.52;101201.89;112003;1211;72247;-82
2021/09/15 07:59:07;;;;;;;9.50;6.70;;;;;;;24.31;44.63;101200.41;112051;1214;60991;-80
2021/09/15 08:01:33;;;;;;;16.60;6.90;;;;;;;24.34;44.80;101201.10;112082;1213;60987;-82
2021/09/15 08:04:01;;;;;;;13.70;7.00;;;;;;;24.36;44.79;101200.02;112423;1211;60918;-84
2021/09/15 08:06:31;;;;;;;11.20;7.00;;;;;;;24.38;44.74;101202.52;112244;1218;72192;-80
2021/09/15 08:09:07;;;;;;;9.90;6.80;;;;;;;24.40;44.72;101197.01;112141;1212;74819;-81
2021/09/15 08:11:40;;;;;;;9.40;6.60;;;;;;;24.42;44.72;101189.80;112199;1219;61283;-81
2021/09/15 08:14:06;;;;;;;12.10;7.10;;;;;;;24.44;44.79;101187.48;112308;1211;61106;-83
2021/09/15 08:16:40;;;;;;;11.10;6.30;;;;;;;24.47;44.74;101186.39;112265;1213;73451;-80
2021/09/15 08:19:15;;;;;;;10.30;6.70;;;;;;;24.49;44.70;101188.58;112324;1211;61022;-81
2021/09/15 08:21:50;;;;;;;10.80;6.40;;;;;;;24.51;44.72;101188.58;112422;1211;60093;-81
2021/09/15 08:24:39;;;;;;;10.80;6.90;;;;;;;24.51;44.74;101186.27;112224;1213;59771;-81
2021/09/15 08:27:12;;;;;;;10.20;6.30;;;;;;;24.52;44.47;101183.30;112501;1211;73239;-81
2021/09/15 08:29:37;;;;;;;10.60;6.80;;;;;;;24.53;44.63;101184.48;112706;1211;74359;-80
2021/09/15 08:32:03;;;;;;;12.40;7.00;;;;;;;24.54;44.58;101181.19;112545;1211;59374;-80
2021/09/15 08:34:29;;;;;;;10.80;7.40;;;;;;;24.52;44.49;101179.38;112536;1212;61433;-81
2021/09/15 08:36:54;;;;;;;15.90;8.70;;;;;;;24.48;44.42;101176.38;112475;1218;60936;-81
2021/09/15 08:39:21;;;;;;;17.30;10.50;;;;;;;24.48;44.42;101177.88;112460;1214;61263;-81
2021/09/15 08:41:51;;;;;;;14.00;8.80;;;;;;;24.47;44.28;101178.13;112511;1211;59230;-80
2021/09/15 08:44:17;;;;;;;12.60;8.20;;;;;;;24.47;44.30;101178.32;113041;1211;60650;-80
2021/09/15 08:46:43;;;;;;;18.60;7.90;;;;;;;24.48;44.27;101177.31;113423;1211;58768;-80
2021/09/15 08:49:08;;;;;;;11.80;6.80;;;;;;;24.51;44.31;101177.66;113366;1211;58583;-80
2021/09/15 08:51:34;;;;;;;16.50;7.70;;;;;;;24.51;44.25;101178.54;113221;1211;59725;-81
2021/09/15 08:54:01;;;;;;;16.20;6.80;;;;;;;24.53;44.23;101176.72;113306;1212;59201;-80
2021/09/15 08:56:27;;;;;;;21.70;7.40;;;;;;;24.56;44.34;101175.22;113106;1212;59212;-80
2021/09/15 08:58:52;;;;;;;14.50;6.90;;;;;;;24.60;44.62;101172.02;113009;1212;59168;-80
2021/09/15 09:01:23;;;;;;;24.50;6.80;;;;;;;24.64;44.67;101173.89;113171;1211;59574;-79
2021/09/15 09:03:52;;;;;;;17.10;7.10;;;;;;;24.67;44.68;101169.73;113281;1211;60241;-80
2021/09/15 09:06:18;;;;;;;18.20;6.90;;;;;;;24.69;44.51;101167.94;113247;1211;60227;-80
2021/09/15 09:08:45;;;;;;;15.30;6.40;;;;;;;24.71;44.39;101164.93;113307;1211;74934;-79
2021/09/15 09:11:18;;;;;;;11.00;6.20;;;;;;;24.70;44.49;101163.85;111925;1212;76982;-80
2021/09/15 09:14:04;;;;;;;13.00;6.70;;;;;;;24.70;44.29;101156.55;112207;1212;60949;-80
2021/09/15 09:16:48;;;;;;;14.20;6.90;;;;;;;24.68;44.16;101154.50;113340;1211;60136;-80
2021/09/15 09:19:19;;;;;;;9.40;6.10;;;;;;;24.68;44.13;101153.97;113374;1211;72099;-80
2021/09/15 09:21:50;;;;;;;9.10;6.30;;;;;;;24.69;44.04;101151.70;113333;1211;74485;-80
2021/09/15 09:24:19;;;;;;;11.00;6.40;;;;;;;24.70;43.99;101149.27;112711;1211;61101;-81
2021/09/15 09:27:13;;;;;;;9.80;6.30;;;;;;;24.72;43.97;101153.27;112264;1213;60980;-79
2021/09/15 09:29:49;;;;;;;10.80;6.30;;;;;;;24.73;43.93;101145.46;112158;1218;73707;-80
2021/09/15 09:32:16;;;;;;;11.90;6.00;;;;;;;24.74;43.85;101144.86;112252;1211;74712;-81
2021/09/15 09:34:50;;;;;;;11.20;6.60;;;;;;;24.73;43.74;101145.96;112155;1218;61150;-79
2021/09/15 09:37:27;;;;;;;10.00;6.60;;;;;;;24.72;43.66;101144.43;112106;1213;61047;-80
2021/09/15 09:40:20;;;;;;;10.20;6.20;;;;;;;24.71;43.49;101140.63;112020;1213;71163;-80
2021/09/15 09:42:46;;;;;;;10.70;6.30;;;;;;;24.71;43.52;101138.23;112874;1212;75954;-82
2021/09/15 09:45:15;;;;;;;10.60;6.40;;;;;;;24.72;43.57;101139.23;111747;1211;61504;-80
2021/09/15 09:47:42;;;;;;;11.50;6.00;;;;;;;24.73;43.51;101137.91;113498;1211;61312;-80
2021/09/15 09:50:15;;;;;;;9.80;6.00;;;;;;;24.73;43.51;101135.19;113202;1213;73317;-80
2021/09/15 09:52:58;;;;;;;26.60;6.80;;;;;;;24.74;43.53;101132.23;113259;1211;74041;-80
2021/09/15 09:55:24;;;;;;;26.00;6.20;;;;;;;24.76;43.57;101129.57;113188;1210;61225;-80
2021/09/15 09:57:52;;;;;;;16.20;6.50;;;;;;;24.78;43.66;101126.86;113169;1212;59967;-80
2021/09/15 10:00:22;;;;;;;16.30;6.20;;;;;;;24.80;43.68;101127.80;113422;1211;75338;-80
2021/09/15 10:02:48;;;;;;;21.90;6.20;;;;;;;24.82;43.55;101124.61;113178;1212;74260;-80
2021/09/15 10:05:14;;;;;;;11.30;6.30;;;;;;;24.83;43.61;101120.71;113191;1213;59246;-80
2021/09/15 10:07:40;;;;;;;19.80;6.20;;;;;;;24.85;43.57;101124.16;113304;1212;59018;-81
2021/09/15 10:10:08;;;;;;;8.90;6.10;;;;;;;24.87;43.47;101123.24;113279;1211;59510;-81
2021/09/15 10:12:34;;;;;;;10.70;5.90;;;;;;;24.89;43.26;101123.86;112029;1212;74383;-82
2021/09/15 10:15:00;;;;;;;13.00;6.20;;;;;;;24.89;43.34;101121.10;111776;1215;60984;-82
2021/09/15 10:17:28;;;;;;;8.80;5.70;;;;;;;24.90;43.07;101118.16;111735;1214;61099;-80
2021/09/15 10:19:57;;;;;;;10.70;6.20;;;;;;;24.89;43.01;101118.59;111767;1214;73475;-80
2021/09/15 10:22:32;;;;;;;11.20;5.80;;;;;;;24.89;42.95;101114.63;111934;1211;75242;-81
2021/09/15 10:24:59;;;;;;;8.90;5.30;;;;;;;24.90;42.90;101113.44;112379;1211;60958;-80
2021/09/15 10:27:27;;;;;;;11.90;6.10;;;;;;;24.91;42.92;101112.16;111967;1214;60943;-79
2021/09/15 10:30:08;;;;;;;9.70;5.60;;;;;;;24.90;42.62;101103.58;112729;1212;73368;-79
2021/09/15 10:32:45;;;;;;;11.40;5.80;;;;;;;24.90;42.56;101103.95;112120;1220;74503;-80
2021/09/15 10:35:13;;;;;;;11.30;6.00;;;;;;;24.89;42.56;101100.93;112773;1212;60974;-80
2021/09/15 10:37:48;;;;;;;16.40;5.90;;;;;;;24.89;42.56;101096.28;112333;1218;60970;-80
2021/09/15 10:40:35;;;;;;;9.30;5.70;;;;;;;24.88;42.58;101094.52;112275;1218;72529;-80
2021/09/15 10:43:36;;;;;;;10.90;5.80;;;;;;;24.88;42.38;101092.02;112482;1219;74409;-80
2021/09/15 10:46:35;;;;;;;;;;;;;;;;;;;;;
2021/09/15 10:49:45;;;;;;;21.10;6.20;;;;;;;24.85;42.74;101082.01;111669;1216;60970;-78
2021/09/15 10:52:39;;;;;;;20.20;6.60;;;;;;;24.87;43.29;101076.45;110970;1222;73506;-83
2021/09/15 10:55:18;;;;;;;17.10;6.20;;;;;;;24.88;43.49;101076.40;110913;1219;74271;-80
2021/09/15 10:57:44;;;;;;;13.20;6.10;;;;;;;24.88;43.36;101071.50;112610;1219;61612;-79
2021/09/15 11:00:24;;;;;;;17.90;7.10;;;;;;;24.88;43.35;101064.11;112259;1226;59277;-80
2021/09/15 11:03:21;;;;;;;9.20;6.00;;;;;;;24.89;43.07;101060.65;111387;1219;72432;-81
2021/09/15 11:05:56;;;;;;;9.90;6.30;;;;;;;24.90;42.73;101062.55;111154;1219;74491;-81
2021/09/15 11:08:54;;;;;;;10.80;5.50;;;;;;;24.89;42.41;101060.05;111315;1219;60996;-81
2021/09/15 11:11:29;;;;;;;14.90;6.00;;;;;;;24.90;42.43;101058.89;111229;1218;61044;-80
2021/09/15 11:14:23;;;;;;;9.40;6.10;;;;;;;24.91;42.29;101053.80;111224;1222;73993;-79
2021/09/15 11:16:52;;;;;;;8.90;6.10;;;;;;;24.91;42.20;101047.10;111224;1227;73762;-80
2021/09/15 11:19:32;;;;;;;9.70;6.00;;;;;;;24.91;42.04;101041.39;111378;1221;61014;-80
2021/09/15 11:22:12;;;;;;;10.50;6.30;;;;;;;24.91;41.90;101033.84;111565;1219;61647;-80
2021/09/15 11:25:05;;;;;;;11.90;6.10;;;;;;;24.92;41.92;101032.88;111617;1216;72374;-81
2021/09/15 11:27:33;;;;;;;10.60;6.00;;;;;;;24.92;41.93;101031.05;111328;1227;75461;-81
2021/09/15 11:30:06;;;;;;;9.30;6.00;;;;;;;24.92;41.92;101028.35;111520;1222;61133;-80
2021/09/15 11:32:35;;;;;;;12.60;6.20;;;;;;;24.93;41.91;101026.83;111889;1223;61404;-80
2021/09/15 11:35:33;;;;;;;14.70;6.00;;;;;;;24.93;41.88;101024.10;111983;1216;72243;-82
2021/09/15 11:38:06;;;;;;;11.90;6.40;;;;;;;24.94;41.77;101016.52;111814;1219;74993;-83
2021/09/15 11:40:50;;;;;;;8.80;5.40;;;;;;;24.93;41.74;101006.61;111685;1220;60983;-81
2021/09/15 11:43:34;;;;;;;;;;;;;;;;;;;;;
2021/09/15 11:46:13;;;;;;;13.10;6.00;;;;;;;24.95;41.64;101007.60;111738;1219;72448;-84
2021/09/15 11:48:55;;;;;;;13.50;5.50;;;;;;;24.95;41.62;100998.23;111659;1226;74433;-81
2021/09/15 11:51:49;;;;;;;7.40;5.60;;;;;;;24.94;41.66;100996.81;111692;1219;61135;-80
2021/09/15 11:54:30;;;;;;;7.10;5.10;;;;;;;24.94;41.83;100993.06;111611;1222;61270;-83
2021/09/15 11:57:18;;;;;;;8.30;5.50;;;;;;;24.94;41.77;100989.85;111590;1219;72411;-85
2021/09/15 11:59:53;;;;;;;7.40;5.40;;;;;;;24.94;41.90;100986.07;111315;1221;75825;-81
2021/09/15 12:02:52;;;;;;;12.60;6.10;;;;;;;24.94;41.90;100985.33;111278;1223;61142;-92
2021/09/15 12:05:57;;;;;;;8.00;5.70;;;;;;;24.92;42.07;100981.85;111178;1230;60060;-83
2021/09/15 12:08:47;;;;;;;7.80;5.60;;;;;;;24.93;42.13;100979.13;111180;1224;72400;-86
2021/09/15 12:11:55;;;;;;;10.70;5.70;;;;;;;24.92;42.19;100973.60;111364;1222;75582;-88
2021/09/15 12:14:54;;;;;;;;;;;;;;;;;;;;;
2021/09/15 12:17:59;;;;;;;;;;;;;;;;;;;;;
2021/09/15 12:20:53;;;;;;;8.40;5.40;;;;;;;24.91;42.34;100967.38;111220;1230;72832;-81
2021/09/15 12:23:46;;;;;;;;;;;;;;;;;;;;;
2021/09/15 12:26:24;;;;;;;;;;;;;;;;;;;;;
2021/09/15 12:29:30;;;;;;;9.30;5.50;;;;;;;24.91;42.53;100950.83;111203;1224;61179;-83
2021/09/15 12:32:38;;;;;;;;;;;;;;;;;;;;;
2021/09/15 12:35:50;;;;;;;8.20;5.40;;;;;;;24.91;42.58;100947.98;111185;1226;73097;-88
2021/09/15 12:39:26;;;;;;;;;;;;;;;;;;;;;
2021/09/15 12:41:59;;;;;;;10.00;5.70;;;;;;;24.91;42.85;100950.98;111170;1231;61342;-83
2021/09/15 12:44:46;;;;;;;9.10;5.90;;;;;;;24.91;42.94;100946.09;111293;1230;72689;-81
2021/09/15 12:48:03;;;;;;;;;;;;;;;;;;;;;
2021/09/15 12:51:07;;;;;;;9.90;5.90;;;;;;;24.91;43.01;100937.70;111323;1230;60967;-86
2021/09/15 12:53:53;;;;;;;10.10;5.50;;;;;;;24.90;43.18;100933.48;111013;1233;61030;-86
2021/09/15 12:56:42;;;;;;;12.10;5.70;;;;;;;24.90;43.08;100928.60;110890;1232;72498;-82
2021/09/15 13:00:07;;;;;;;6.80;5.40;;;;;;;24.90;43.32;100925.86;110796;1233;74839;-81
2021/09/15 13:02:56;;;;;;;8.20;5.60;;;;;;;24.90;43.16;100924.85;110953;1233;61224;-84
2021/09/15 13:05:59;;;;;;;9.00;5.60;;;;;;;24.89;43.30;100922.00;110921;1227;60994;-84
2021/09/15 13:09:02;;;;;;;;;;;;;;;;;;;;;
2021/09/15 13:12:07;;;;;;;;;;;;;;;;;;;;;
2021/09/15 13:15:22;;;;;;;9.50;5.70;;;;;;;24.90;43.63;100913.11;110998;1233;61029;-89
2021/09/15 13:18:19;;;;;;;9.00;5.70;;;;;;;24.90;43.51;100913.27;111221;1231;61021;-86
2021/09/15 13:21:08;;;;;;;9.30;5.50;;;;;;;24.90;43.45;100909.86;111131;1232;72184;-82
2021/09/15 13:23:54;;;;;;;9.80;5.60;;;;;;;24.91;43.61;100908.73;110827;1233;74736;-82
2021/09/15 13:26:55;;;;;;;9.30;5.30;;;;;;;24.91;43.63;100908.17;110780;1232;61230;-81
2021/09/15 13:29:34;;;;;;;;;;;;;;;;;;;;;
2021/09/15 13:32:19;;;;;;;;;;;;;;;;;;;;;
2021/09/15 13:34:59;;;;;;;7.80;5.80;;;;;;;24.92;43.63;100907.33;110851;1232;74280;-83
2021/09/15 13:38:31;;;;;;;8.90;5.50;;;;;;;24.92;43.69;100907.13;110831;1227;61025;-82
2021/09/15 13:41:06;;;;;;;10.20;5.90;;;;;;;24.93;43.79;100904.92;110293;1234;61220;-83
2021/09/15 13:43:41;;;;;;;12.90;5.80;;;;;;;24.93;43.89;100904.70;110035;1239;72286;-79
2021/09/15 13:46:12;;;;;;;;;;;;;;;24.95;43.84;100905.71;110000;1233;74463;-80
2021/09/15 13:49:01;;;;;;;8.60;5.70;;;;;;;24.93;44.04;100907.30;110281;1231;61307;-81
2021/09/15 13:51:51;;;;;;;8.00;5.50;;;;;;;24.95;44.01;100904.09;110145;1240;61245;-83
2021/09/15 13:54:24;;;;;;;10.70;6.10;;;;;;;24.94;43.80;100902.13;110241;1230;72034;-81
2021/09/15 13:57:04;;;;;;;10.00;5.60;;;;;;;24.96;43.82;100901.86;110313;1230;74858;-80
2021/09/15 13:59:42;;;;;;;11.50;6.50;;;;;;;24.96;44.06;100901.48;110413;1237;61143;-85
2021/09/15 14:02:40;;;;;;;;;;;;;;;;;;;;;